createdAt,value
2018-06-04T00:01:25.866Z,19.20
2018-06-04T00:05:21.257Z,19.10
2018-06-04T00:09:14.700Z,19.10
2018-06-04T00:13:08.646Z,18.90
2018-06-04T00:17:02.632Z,18.80
2018-06-04T00:20:56.909Z,18.80
2018-06-04T00:24:50.936Z,18.80
2018-06-04T00:28:45.040Z,18.80
2018-06-04T00:32:39.100Z,18.70
2018-06-04T00:36:33.094Z,18.70
2018-06-04T00:40:27.043Z,18.70
2018-06-04T00:44:21.067Z,18.70
2018-06-04T00:48:15.057Z,18.60
2018-06-04T00:52:09.074Z,18.60
2018-06-04T00:56:14.262Z,18.50
2018-06-04T01:00:09.090Z,18.40
2018-06-04T01:04:03.077Z,18.30
2018-06-04T01:07:57.944Z,18.30
2018-06-04T01:11:52.163Z,18.20
2018-06-04T01:15:46.247Z,18.20
2018-06-04T01:19:40.262Z,18.10
2018-06-04T01:23:34.439Z,18.10
2018-06-04T01:27:28.115Z,18.00
2018-06-04T01:31:22.215Z,18.00
2018-06-04T01:35:16.393Z,18.00
2018-06-04T01:39:10.443Z,18.00
2018-06-04T01:43:04.473Z,18.10
2018-06-04T01:46:58.486Z,18.10
2018-06-04T01:50:53.346Z,18.00
2018-06-04T01:54:47.651Z,17.90
2018-06-04T01:58:42.051Z,17.90
2018-06-04T02:02:36.125Z,17.70
2018-06-04T02:06:31.006Z,17.70
2018-06-04T02:10:25.139Z,17.60
2018-06-04T02:14:21.330Z,17.50
2018-06-04T02:18:15.659Z,17.40
2018-06-04T02:22:09.192Z,17.40
2018-06-04T02:26:04.313Z,17.20
2018-06-04T02:29:58.299Z,17.20
2018-06-04T02:33:55.781Z,17.20
2018-06-04T02:37:50.563Z,17.10
2018-06-04T02:41:44.651Z,17.10
2018-06-04T02:45:38.800Z,17.10
2018-06-04T02:49:32.744Z,17.10
2018-06-04T02:53:27.549Z,17.00
2018-06-04T02:57:21.596Z,16.90
2018-06-04T03:01:15.670Z,16.90
2018-06-04T03:05:10.124Z,16.90
2018-06-04T03:09:07.680Z,16.90
2018-06-04T03:13:01.886Z,16.90
2018-06-04T03:20:48.383Z,17.30
2018-06-04T03:24:42.977Z,17.30
2018-06-04T03:28:37.092Z,17.40
2018-06-04T03:32:31.092Z,17.40
2018-06-04T03:36:25.185Z,17.50
2018-06-04T03:40:19.381Z,17.50
2018-06-04T03:44:13.364Z,17.60
2018-06-04T03:48:07.602Z,17.60
2018-06-04T03:52:01.701Z,17.70
2018-06-04T03:56:14.127Z,17.70
2018-06-04T04:00:07.602Z,17.70
2018-06-04T04:04:01.644Z,17.80
2018-06-04T04:07:55.652Z,17.80
2018-06-04T04:11:49.230Z,17.90
2018-06-04T04:15:43.457Z,18.00
2018-06-04T04:19:37.514Z,18.00
2018-06-04T04:23:31.572Z,18.10
2018-06-04T04:27:25.774Z,18.10
2018-06-04T04:31:19.699Z,18.20
2018-06-04T04:35:13.726Z,18.20
2018-06-04T04:39:09.091Z,18.30
2018-06-04T04:43:03.127Z,19.40
2018-06-04T04:46:57.282Z,21.00
2018-06-04T04:50:51.387Z,22.20
2018-06-04T04:54:45.411Z,23.50
2018-06-04T04:58:39.382Z,23.90
2018-06-04T05:06:27.172Z,23.80
2018-06-04T05:10:20.620Z,23.20
2018-06-04T05:14:15.687Z,22.40
2018-06-04T05:18:09.590Z,21.60
2018-06-04T05:22:03.714Z,21.40
2018-06-04T05:25:58.381Z,21.30
2018-06-04T05:29:53.624Z,21.20
2018-06-04T05:33:48.242Z,20.90
2018-06-04T05:37:43.227Z,20.80
2018-06-04T05:41:37.297Z,20.60
2018-06-04T05:45:31.533Z,20.60
2018-06-04T05:49:25.692Z,20.60
2018-06-04T05:53:19.686Z,20.70
2018-06-04T05:57:13.796Z,20.70
2018-06-04T06:01:07.925Z,20.70
2018-06-04T06:05:02.284Z,20.70
2018-06-04T06:08:58.805Z,20.70
2018-06-04T06:12:54.260Z,21.00
2018-06-04T06:16:48.319Z,20.90
2018-06-04T06:20:42.464Z,20.80
2018-06-04T06:24:36.625Z,20.90
2018-06-04T06:28:30.749Z,20.80
2018-06-04T06:32:24.952Z,20.90
2018-06-04T06:36:18.990Z,21.10
2018-06-04T06:40:14.104Z,21.30
2018-06-04T06:44:08.756Z,21.60
2018-06-04T06:48:02.970Z,21.60
2018-06-04T06:55:51.062Z,21.60
2018-06-04T06:59:45.339Z,21.80
2018-06-04T07:03:41.525Z,22.10
2018-06-04T07:07:36.436Z,22.20
2018-06-04T07:15:42.288Z,22.20
2018-06-04T07:19:37.303Z,22.30
2018-06-04T07:23:31.794Z,22.40
2018-06-04T07:27:26.994Z,22.20
2018-06-04T07:31:21.295Z,22.50
2018-06-04T07:35:15.515Z,22.50
2018-06-04T07:39:11.699Z,22.60
2018-06-04T07:43:06.459Z,22.80
2018-06-04T07:47:00.429Z,22.90
2018-06-04T07:50:54.757Z,22.90
2018-06-04T07:54:48.774Z,23.00
2018-06-04T07:58:42.872Z,23.00
2018-06-04T08:02:37.223Z,23.10
2018-06-04T08:06:31.845Z,23.30
2018-06-04T08:10:26.437Z,23.10
2018-06-04T08:14:22.285Z,23.20
2018-06-04T08:18:17.837Z,23.40
2018-06-04T08:22:12.978Z,23.50
2018-06-04T08:26:07.009Z,23.30
2018-06-04T08:30:01.097Z,23.10
2018-06-04T08:33:55.886Z,23.20
2018-06-04T08:37:50.258Z,23.40
2018-06-04T08:41:44.590Z,23.60
2018-06-04T08:45:38.806Z,23.70
2018-06-04T08:49:33.043Z,23.60
2018-06-04T08:53:27.128Z,23.70
2018-06-04T09:01:16.960Z,23.90
2018-06-04T09:09:35.511Z,24.30
2018-06-04T09:13:32.109Z,24.20
2018-06-04T09:17:26.872Z,24.20
2018-06-04T09:21:23.859Z,24.40
2018-06-04T09:25:18.082Z,24.40
2018-06-04T09:29:12.024Z,24.50
2018-06-04T09:33:08.252Z,24.50
2018-06-04T09:37:03.261Z,24.60
2018-06-04T09:40:57.427Z,24.80
2018-06-04T09:44:52.106Z,24.70
2018-06-04T09:48:46.583Z,24.50
2018-06-04T09:52:40.739Z,24.60
2018-06-04T09:56:34.890Z,24.90
2018-06-04T10:00:35.945Z,25.00
2018-06-04T10:04:30.239Z,25.00
2018-06-04T10:08:24.320Z,25.00
2018-06-04T10:16:12.410Z,25.40
2018-06-04T10:20:08.172Z,25.10
2018-06-04T10:24:07.381Z,25.30
2018-06-04T10:28:03.519Z,25.50
2018-06-04T10:31:57.727Z,25.40
2018-06-04T10:35:53.126Z,25.30
2018-06-04T10:39:47.691Z,25.50
2018-06-04T10:43:43.910Z,25.40
2018-06-04T10:47:38.098Z,25.10
2018-06-04T10:51:33.315Z,26.00
2018-06-04T10:59:21.355Z,26.30
2018-06-04T11:03:15.412Z,26.10
2018-06-04T11:07:09.392Z,26.30
2018-06-04T11:11:03.607Z,26.40
2018-06-04T11:15:03.243Z,26.50
2018-06-04T11:18:59.513Z,26.30
2018-06-04T11:22:54.343Z,26.30
2018-06-04T11:26:48.370Z,26.10
2018-06-04T11:30:42.866Z,26.30
2018-06-04T11:34:37.446Z,26.30
2018-06-04T11:38:33.510Z,26.60
2018-06-04T11:42:27.900Z,26.40
2018-06-04T11:46:22.168Z,26.90
2018-06-04T11:50:16.533Z,27.50
2018-06-04T11:54:11.162Z,27.80
2018-06-04T11:58:05.730Z,27.80
2018-06-04T12:01:59.918Z,27.40
2018-06-04T12:05:56.766Z,27.10
2018-06-04T12:09:52.170Z,27.40
2018-06-04T12:13:46.277Z,27.40
2018-06-04T12:17:40.353Z,27.60
2018-06-04T12:21:34.582Z,28.00
2018-06-04T12:25:29.066Z,27.70
2018-06-04T12:29:24.356Z,27.30
2018-06-04T12:33:19.925Z,27.40
2018-06-04T12:37:16.168Z,27.20
2018-06-04T12:41:10.294Z,27.40
2018-06-04T12:45:04.391Z,27.90
2018-06-04T12:48:58.703Z,27.90
2018-06-04T12:52:53.279Z,28.20
2018-06-04T12:56:47.270Z,28.20
2018-06-04T13:00:41.859Z,27.30
2018-06-04T13:04:36.144Z,26.60
2018-06-04T13:08:32.269Z,26.40
2018-06-04T13:12:27.226Z,26.80
2018-06-04T13:16:21.532Z,26.40
2018-06-04T13:20:15.754Z,26.20
2018-06-04T13:24:10.729Z,26.30
2018-06-04T13:28:05.257Z,26.90
2018-06-04T13:31:59.567Z,27.30
2018-06-04T13:35:54.262Z,27.20
2018-06-04T13:39:49.310Z,26.90
2018-06-04T13:43:43.537Z,26.70
2018-06-04T13:47:38.495Z,26.70
2018-06-04T13:51:32.893Z,26.30
2018-06-04T13:55:29.343Z,25.90
2018-06-04T13:59:23.704Z,25.90
2018-06-04T14:03:18.798Z,26.30
2018-06-04T14:07:13.160Z,26.40
2018-06-04T14:11:07.542Z,27.10
2018-06-04T14:15:02.319Z,27.10
2018-06-04T14:18:57.464Z,26.70
2018-06-04T14:22:51.981Z,26.90
2018-06-04T14:26:46.699Z,26.80
2018-06-04T14:30:40.920Z,26.40
2018-06-04T14:34:35.093Z,26.20
2018-06-04T14:38:32.379Z,26.20
2018-06-04T14:42:26.730Z,26.40
2018-06-04T14:46:21.300Z,26.50
2018-06-04T14:50:15.782Z,26.30
2018-06-04T14:54:09.830Z,26.40
2018-06-04T14:58:03.959Z,26.40
2018-06-04T15:01:58.145Z,26.50
2018-06-04T15:05:52.555Z,26.80
2018-06-04T15:09:46.595Z,26.80
2018-06-04T15:13:40.934Z,27.10
2018-06-04T15:17:35.878Z,26.70
2018-06-04T15:21:36.511Z,26.20
2018-06-04T15:25:31.396Z,26.20
2018-06-04T15:29:25.749Z,26.30
2018-06-04T15:33:20.297Z,26.50
2018-06-04T15:37:13.811Z,26.30
2018-06-04T15:41:07.900Z,26.30
2018-06-04T15:45:02.568Z,26.70
2018-06-04T15:48:56.898Z,26.80
2018-06-04T15:52:51.068Z,26.60
2018-06-04T15:56:45.283Z,26.50
2018-06-04T16:00:40.078Z,26.50
2018-06-04T16:04:34.714Z,26.10
2018-06-04T16:08:33.987Z,26.10
2018-06-04T16:12:28.174Z,26.10
2018-06-04T16:16:22.332Z,25.90
2018-06-04T16:20:16.944Z,26.00
2018-06-04T16:24:10.994Z,25.90
2018-06-04T16:28:05.073Z,25.90
2018-06-04T16:31:59.177Z,26.00
2018-06-04T16:35:53.214Z,26.00
2018-06-04T16:39:47.916Z,26.20
2018-06-04T16:43:42.042Z,26.10
2018-06-04T16:47:36.085Z,26.20
2018-06-04T16:51:32.426Z,25.90
2018-06-04T16:55:27.141Z,25.80
2018-06-04T16:59:21.247Z,25.50
2018-06-04T17:03:15.648Z,25.40
2018-06-04T17:07:09.804Z,25.50
2018-06-04T17:11:04.348Z,25.60
2018-06-04T17:14:58.406Z,25.80
2018-06-04T17:18:53.135Z,25.60
2018-06-04T17:22:47.687Z,25.50
2018-06-04T17:26:41.795Z,25.30
2018-06-04T17:30:35.809Z,25.30
2018-06-04T17:34:30.227Z,24.90
2018-06-04T17:38:24.534Z,24.90
2018-06-04T17:42:19.880Z,24.70
2018-06-04T17:46:14.053Z,24.70
2018-06-04T17:50:14.841Z,24.70
2018-06-04T17:54:09.455Z,24.50
2018-06-04T17:58:08.619Z,24.30
2018-06-04T18:02:03.016Z,24.30
2018-06-04T18:05:57.261Z,24.30
2018-06-04T18:09:51.220Z,24.20
2018-06-04T18:13:45.851Z,24.20
2018-06-04T18:17:42.637Z,24.30
2018-06-04T18:21:39.330Z,24.30
2018-06-04T18:25:34.298Z,24.30
2018-06-04T18:29:29.352Z,24.10
2018-06-04T18:33:23.660Z,24.00
2018-06-04T18:37:17.944Z,23.90
2018-06-04T18:41:11.956Z,23.80
2018-06-04T18:45:06.920Z,23.70
2018-06-04T18:49:01.780Z,23.70
2018-06-04T18:52:55.996Z,23.70
2018-06-04T19:00:43.708Z,23.30
2018-06-04T19:08:32.443Z,23.10
2018-06-04T19:12:26.555Z,23.10
2018-06-04T19:16:20.959Z,23.00
2018-06-04T19:20:15.273Z,23.00
2018-06-04T19:24:09.479Z,22.80
2018-06-04T19:28:03.784Z,22.70
2018-06-04T19:31:58.085Z,22.60
2018-06-04T19:35:52.105Z,22.50
2018-06-04T19:39:47.057Z,22.40
2018-06-04T19:43:41.024Z,22.20
2018-06-04T19:47:35.495Z,22.20
2018-06-04T19:51:29.931Z,22.00
2018-06-04T19:55:31.119Z,21.90
2018-06-04T19:59:25.487Z,21.90
2018-06-04T20:03:23.183Z,21.70
2018-06-04T20:07:25.191Z,21.70
2018-06-04T20:11:19.564Z,21.60
2018-06-04T20:15:13.861Z,21.50
2018-06-04T20:19:09.678Z,21.40
2018-06-04T20:23:04.347Z,21.30
2018-06-04T20:26:58.424Z,21.20
2018-06-04T20:30:56.376Z,21.20
2018-06-04T20:34:52.003Z,21.10
2018-06-04T20:38:46.322Z,21.10
2018-06-04T20:42:40.387Z,21.10
2018-06-04T20:46:34.504Z,21.00
2018-06-04T20:50:29.302Z,20.90
2018-06-04T20:54:23.444Z,20.90
2018-06-04T20:58:17.867Z,20.80
2018-06-04T21:02:11.800Z,20.60
2018-06-04T21:06:05.930Z,20.50
2018-06-04T21:10:00.696Z,20.40
2018-06-04T21:13:55.942Z,20.30
2018-06-04T21:17:50.410Z,20.20
2018-06-04T21:21:44.490Z,20.20
2018-06-04T21:25:38.459Z,20.20
2018-06-04T21:29:32.393Z,20.00
2018-06-04T21:33:26.405Z,20.00
2018-06-04T21:37:20.465Z,19.90
2018-06-04T21:41:14.551Z,19.80
2018-06-04T21:45:08.641Z,19.60
2018-06-04T21:49:02.692Z,19.50
2018-06-04T21:52:56.821Z,19.50
2018-06-04T21:56:51.564Z,19.50
2018-06-04T22:00:45.682Z,19.40
2018-06-04T22:04:39.965Z,19.30
2018-06-04T22:08:34.038Z,19.20
2018-06-04T22:12:28.254Z,19.10
2018-06-04T22:16:22.274Z,19.00
2018-06-04T22:20:16.306Z,19.00
2018-06-04T22:24:10.410Z,18.90
2018-06-04T22:28:04.408Z,18.80
2018-06-04T22:31:58.518Z,18.70
2018-06-04T22:35:56.482Z,18.60
2018-06-04T22:39:50.882Z,18.60
2018-06-04T22:43:45.265Z,18.50
2018-06-04T22:47:39.591Z,18.30
2018-06-04T22:51:33.723Z,18.30
2018-06-04T22:55:28.919Z,18.30
2018-06-04T22:59:22.884Z,18.30
2018-06-04T23:03:17.779Z,18.20
2018-06-04T23:07:12.416Z,18.10
2018-06-04T23:11:06.511Z,18.00
2018-06-04T23:15:00.588Z,18.00
2018-06-04T23:18:54.781Z,17.90
2018-06-04T23:22:48.973Z,17.90
2018-06-04T23:26:44.160Z,17.90
2018-06-04T23:30:38.198Z,17.90
2018-06-04T23:34:32.361Z,17.90
2018-06-04T23:38:26.652Z,17.90
2018-06-04T23:42:20.643Z,17.90
2018-06-04T23:46:14.712Z,17.90
2018-06-04T23:50:08.799Z,17.90
2018-06-04T23:54:02.995Z,18.00
2018-06-04T23:57:57.095Z,18.10
